sensor_id;sensor_type;location;lat;lon;timestamp;temperature;humidity
32147;DHT22;32190;49.112;8.598;2023-11-19T00:02:21;13.30;67.80
32147;DHT22;32190;49.112;8.598;2023-11-19T00:08:12;13.30;68.00
32147;DHT22;32190;49.112;8.598;2023-11-19T00:14:03;13.30;68.00
32147;DHT22;32190;49.112;8.598;2023-11-19T00:19:54;13.30;68.00
32147;DHT22;32190;49.112;8.598;2023-11-19T00:25:44;13.30;68.20
32147;DHT22;32190;49.112;8.598;2023-11-19T00:31:35;13.30;68.20
32147;DHT22;32190;49.112;8.598;2023-11-19T00:37:26;13.30;68.30
32147;DHT22;32190;49.112;8.598;2023-11-19T00:43:16;13.30;68.50
32147;DHT22;32190;49.112;8.598;2023-11-19T00:49:08;13.30;68.40
32147;DHT22;32190;49.112;8.598;2023-11-19T00:54:59;13.40;68.70
32147;DHT22;32190;49.112;8.598;2023-11-19T01:00:49;13.40;68.70
32147;DHT22;32190;49.112;8.598;2023-11-19T01:06:40;13.40;68.80
32147;DHT22;32190;49.112;8.598;2023-11-19T01:12:32;13.40;68.90
32147;DHT22;32190;49.112;8.598;2023-11-19T01:18:23;13.50;69.10
32147;DHT22;32190;49.112;8.598;2023-11-19T01:24:13;13.50;69.20
32147;DHT22;32190;49.112;8.598;2023-11-19T01:30:05;13.50;69.40
32147;DHT22;32190;49.112;8.598;2023-11-19T01:35:56;13.60;69.20
32147;DHT22;32190;49.112;8.598;2023-11-19T01:41:49;13.60;69.40
32147;DHT22;32190;49.112;8.598;2023-11-19T01:47:39;13.60;69.50
32147;DHT22;32190;49.112;8.598;2023-11-19T01:53:31;13.70;69.60
32147;DHT22;32190;49.112;8.598;2023-11-19T01:59:24;13.70;69.60
32147;DHT22;32190;49.112;8.598;2023-11-19T02:05:17;13.70;69.80
32147;DHT22;32190;49.112;8.598;2023-11-19T02:11:07;13.70;69.70
32147;DHT22;32190;49.112;8.598;2023-11-19T02:16:58;13.80;69.90
32147;DHT22;32190;49.112;8.598;2023-11-19T02:22:49;13.80;69.70
32147;DHT22;32190;49.112;8.598;2023-11-19T02:28:41;13.80;69.90
32147;DHT22;32190;49.112;8.598;2023-11-19T02:34:33;13.80;70.10
32147;DHT22;32190;49.112;8.598;2023-11-19T02:40:24;13.90;69.80
32147;DHT22;32190;49.112;8.598;2023-11-19T02:46:15;13.90;70.00
32147;DHT22;32190;49.112;8.598;2023-11-19T02:52:07;13.90;69.80
32147;DHT22;32190;49.112;8.598;2023-11-19T02:58:00;13.90;69.70
32147;DHT22;32190;49.112;8.598;2023-11-19T03:03:56;13.90;69.80
32147;DHT22;32190;49.112;8.598;2023-11-19T03:09:48;13.90;69.90
32147;DHT22;32190;49.112;8.598;2023-11-19T03:15:40;13.90;70.10
32147;DHT22;32190;49.112;8.598;2023-11-19T03:21:31;13.90;70.00
32147;DHT22;32190;49.112;8.598;2023-11-19T03:27:21;13.90;70.00
32147;DHT22;32190;49.112;8.598;2023-11-19T03:33:12;14.00;70.10
32147;DHT22;32190;49.112;8.598;2023-11-19T03:39:03;14.00;70.20
32147;DHT22;32190;49.112;8.598;2023-11-19T03:44:54;14.00;70.40
32147;DHT22;32190;49.112;8.598;2023-11-19T03:50:44;14.10;70.20
32147;DHT22;32190;49.112;8.598;2023-11-19T03:56:35;14.10;70.50
32147;DHT22;32190;49.112;8.598;2023-11-19T04:02:25;14.10;70.60
32147;DHT22;32190;49.112;8.598;2023-11-19T04:08:19;14.10;70.70
32147;DHT22;32190;49.112;8.598;2023-11-19T04:14:10;14.20;70.60
32147;DHT22;32190;49.112;8.598;2023-11-19T04:20:00;14.20;70.70
32147;DHT22;32190;49.112;8.598;2023-11-19T04:25:51;14.30;70.70
32147;DHT22;32190;49.112;8.598;2023-11-19T04:31:41;14.30;70.80
32147;DHT22;32190;49.112;8.598;2023-11-19T04:37:32;14.20;70.70
32147;DHT22;32190;49.112;8.598;2023-11-19T04:43:22;14.30;70.70
32147;DHT22;32190;49.112;8.598;2023-11-19T04:49:14;14.30;70.70
32147;DHT22;32190;49.112;8.598;2023-11-19T04:55:05;14.30;70.70
32147;DHT22;32190;49.112;8.598;2023-11-19T05:00:55;14.30;71.00
32147;DHT22;32190;49.112;8.598;2023-11-19T05:06:46;14.30;70.90
32147;DHT22;32190;49.112;8.598;2023-11-19T05:12:37;14.40;71.20
32147;DHT22;32190;49.112;8.598;2023-11-19T05:18:29;14.40;71.10
32147;DHT22;32190;49.112;8.598;2023-11-19T05:24:20;14.40;71.20
32147;DHT22;32190;49.112;8.598;2023-11-19T05:30:10;14.40;70.90
32147;DHT22;32190;49.112;8.598;2023-11-19T05:36:01;14.50;71.20
32147;DHT22;32190;49.112;8.598;2023-11-19T05:41:53;14.50;71.10
32147;DHT22;32190;49.112;8.598;2023-11-19T05:47:44;14.50;71.20
32147;DHT22;32190;49.112;8.598;2023-11-19T05:53:35;14.60;71.10
32147;DHT22;32190;49.112;8.598;2023-11-19T05:59:25;14.60;71.30
32147;DHT22;32190;49.112;8.598;2023-11-19T06:05:16;14.60;71.10
32147;DHT22;32190;49.112;8.598;2023-11-19T06:11:06;14.60;71.30
32147;DHT22;32190;49.112;8.598;2023-11-19T06:16:57;14.70;71.30
32147;DHT22;32190;49.112;8.598;2023-11-19T06:22:48;14.70;71.30
32147;DHT22;32190;49.112;8.598;2023-11-19T06:28:38;14.70;71.30
32147;DHT22;32190;49.112;8.598;2023-11-19T06:34:29;14.70;71.10
32147;DHT22;32190;49.112;8.598;2023-11-19T06:40:19;14.80;71.30
32147;DHT22;32190;49.112;8.598;2023-11-19T06:46:17;14.80;71.30
32147;DHT22;32190;49.112;8.598;2023-11-19T06:52:07;14.90;71.50
32147;DHT22;32190;49.112;8.598;2023-11-19T06:58:00;14.90;71.00
32147;DHT22;32190;49.112;8.598;2023-11-19T07:03:52;14.90;71.20
32147;DHT22;32190;49.112;8.598;2023-11-19T07:09:43;14.90;71.80
32147;DHT22;32190;49.112;8.598;2023-11-19T07:15:33;15.00;71.30
32147;DHT22;32190;49.112;8.598;2023-11-19T07:21:24;15.00;71.30
32147;DHT22;32190;49.112;8.598;2023-11-19T07:27:15;15.00;71.30
32147;DHT22;32190;49.112;8.598;2023-11-19T07:33:06;15.00;71.20
32147;DHT22;32190;49.112;8.598;2023-11-19T07:38:57;15.10;72.00
32147;DHT22;32190;49.112;8.598;2023-11-19T07:44:48;15.10;71.30
32147;DHT22;32190;49.112;8.598;2023-11-19T07:50:39;15.10;71.10
32147;DHT22;32190;49.112;8.598;2023-11-19T07:56:33;15.10;71.10
32147;DHT22;32190;49.112;8.598;2023-11-19T08:02:24;15.10;71.30
32147;DHT22;32190;49.112;8.598;2023-11-19T08:08:15;15.10;71.30
32147;DHT22;32190;49.112;8.598;2023-11-19T08:14:06;15.10;71.30
32147;DHT22;32190;49.112;8.598;2023-11-19T08:19:56;15.20;71.40
32147;DHT22;32190;49.112;8.598;2023-11-19T08:25:47;15.20;71.60
32147;DHT22;32190;49.112;8.598;2023-11-19T08:31:37;15.30;71.40
32147;DHT22;32190;49.112;8.598;2023-11-19T08:37:28;15.30;71.30
32147;DHT22;32190;49.112;8.598;2023-11-19T08:43:18;15.30;71.40
32147;DHT22;32190;49.112;8.598;2023-11-19T08:49:09;15.30;71.30
32147;DHT22;32190;49.112;8.598;2023-11-19T08:54:59;15.40;71.50
32147;DHT22;32190;49.112;8.598;2023-11-19T09:00:50;15.40;71.50
32147;DHT22;32190;49.112;8.598;2023-11-19T09:06:41;15.40;71.40
32147;DHT22;32190;49.112;8.598;2023-11-19T09:12:31;15.50;71.40
32147;DHT22;32190;49.112;8.598;2023-11-19T09:18:22;15.50;71.70
32147;DHT22;32190;49.112;8.598;2023-11-19T09:24:12;15.60;71.40
32147;DHT22;32190;49.112;8.598;2023-11-19T09:30:04;15.60;71.30
32147;DHT22;32190;49.112;8.598;2023-11-19T09:35:55;15.60;71.20
32147;DHT22;32190;49.112;8.598;2023-11-19T09:41:45;15.60;71.20
32147;DHT22;32190;49.112;8.598;2023-11-19T09:47:36;15.60;71.30
32147;DHT22;32190;49.112;8.598;2023-11-19T09:53:27;15.60;71.50
32147;DHT22;32190;49.112;8.598;2023-11-19T09:59:17;15.70;71.50
32147;DHT22;32190;49.112;8.598;2023-11-19T10:05:09;15.70;71.40
32147;DHT22;32190;49.112;8.598;2023-11-19T10:11:00;15.70;71.50
32147;DHT22;32190;49.112;8.598;2023-11-19T10:16:51;15.80;71.50
32147;DHT22;32190;49.112;8.598;2023-11-19T10:22:41;15.90;71.80
32147;DHT22;32190;49.112;8.598;2023-11-19T10:28:39;16.00;71.80
32147;DHT22;32190;49.112;8.598;2023-11-19T10:34:30;16.10;71.90
32147;DHT22;32190;49.112;8.598;2023-11-19T10:40:21;16.20;71.70
32147;DHT22;32190;49.112;8.598;2023-11-19T10:46:13;16.30;71.50
32147;DHT22;32190;49.112;8.598;2023-11-19T10:52:05;16.40;71.30
32147;DHT22;32190;49.112;8.598;2023-11-19T10:58:04;16.50;71.10
32147;DHT22;32190;49.112;8.598;2023-11-19T11:03:57;16.50;70.80
32147;DHT22;32190;49.112;8.598;2023-11-19T11:09:49;16.60;70.90
32147;DHT22;32190;49.112;8.598;2023-11-19T11:15:41;16.70;70.60
32147;DHT22;32190;49.112;8.598;2023-11-19T11:21:32;16.70;70.60
32147;DHT22;32190;49.112;8.598;2023-11-19T11:27:35;16.70;70.40
32147;DHT22;32190;49.112;8.598;2023-11-19T11:34:05;16.80;70.50
32147;DHT22;32190;49.112;8.598;2023-11-19T11:40:02;16.80;70.20
32147;DHT22;32190;49.112;8.598;2023-11-19T11:46:00;16.90;70.20
32147;DHT22;32190;49.112;8.598;2023-11-19T11:51:57;16.90;70.20
32147;DHT22;32190;49.112;8.598;2023-11-19T11:57:48;16.90;70.00
32147;DHT22;32190;49.112;8.598;2023-11-19T12:03:38;17.00;70.20
32147;DHT22;32190;49.112;8.598;2023-11-19T12:09:29;17.10;70.10
32147;DHT22;32190;49.112;8.598;2023-11-19T12:15:19;17.20;70.10
32147;DHT22;32190;49.112;8.598;2023-11-19T12:21:28;17.20;69.90
32147;DHT22;32190;49.112;8.598;2023-11-19T12:27:22;17.30;69.50
32147;DHT22;32190;49.112;8.598;2023-11-19T12:33:13;17.40;69.50
32147;DHT22;32190;49.112;8.598;2023-11-19T12:39:04;17.50;68.90
32147;DHT22;32190;49.112;8.598;2023-11-19T12:44:55;17.60;68.80
32147;DHT22;32190;49.112;8.598;2023-11-19T12:50:58;17.70;68.40
32147;DHT22;32190;49.112;8.598;2023-11-19T12:56:53;17.70;67.60
32147;DHT22;32190;49.112;8.598;2023-11-19T13:02:56;17.70;67.60
32147;DHT22;32190;49.112;8.598;2023-11-19T13:08:49;17.70;67.20
32147;DHT22;32190;49.112;8.598;2023-11-19T13:14:45;17.70;67.50
32147;DHT22;32190;49.112;8.598;2023-11-19T13:20:37;17.70;67.70
32147;DHT22;32190;49.112;8.598;2023-11-19T13:26:28;17.70;67.70
32147;DHT22;32190;49.112;8.598;2023-11-19T13:32:19;17.70;67.30
32147;DHT22;32190;49.112;8.598;2023-11-19T13:38:10;17.60;66.90
32147;DHT22;32190;49.112;8.598;2023-11-19T13:44:00;17.60;67.10
32147;DHT22;32190;49.112;8.598;2023-11-19T13:49:51;17.60;66.80
32147;DHT22;32190;49.112;8.598;2023-11-19T13:55:43;17.60;66.70
32147;DHT22;32190;49.112;8.598;2023-11-19T14:01:33;17.50;66.30
32147;DHT22;32190;49.112;8.598;2023-11-19T14:07:24;17.60;66.40
32147;DHT22;32190;49.112;8.598;2023-11-19T14:13:15;17.60;66.20
32147;DHT22;32190;49.112;8.598;2023-11-19T14:19:06;17.60;66.30
32147;DHT22;32190;49.112;8.598;2023-11-19T14:24:56;17.70;66.10
32147;DHT22;32190;49.112;8.598;2023-11-19T14:30:47;17.70;65.90
32147;DHT22;32190;49.112;8.598;2023-11-19T14:36:44;17.70;65.40
32147;DHT22;32190;49.112;8.598;2023-11-19T14:42:34;17.70;65.00
32147;DHT22;32190;49.112;8.598;2023-11-19T14:48:25;17.70;65.20
32147;DHT22;32190;49.112;8.598;2023-11-19T14:54:15;17.70;64.90
32147;DHT22;32190;49.112;8.598;2023-11-19T15:00:06;17.70;64.70
32147;DHT22;32190;49.112;8.598;2023-11-19T15:06:03;17.60;64.70
32147;DHT22;32190;49.112;8.598;2023-11-19T15:11:54;17.60;64.50
32147;DHT22;32190;49.112;8.598;2023-11-19T15:17:44;17.60;64.70
32147;DHT22;32190;49.112;8.598;2023-11-19T15:23:35;17.50;64.80
32147;DHT22;32190;49.112;8.598;2023-11-19T15:29:27;17.50;64.80
32147;DHT22;32190;49.112;8.598;2023-11-19T15:35:18;17.40;64.80
32147;DHT22;32190;49.112;8.598;2023-11-19T15:41:09;17.40;64.70
32147;DHT22;32190;49.112;8.598;2023-11-19T15:47:00;17.40;65.00
32147;DHT22;32190;49.112;8.598;2023-11-19T15:52:50;17.30;65.10
32147;DHT22;32190;49.112;8.598;2023-11-19T15:58:41;17.30;65.00
32147;DHT22;32190;49.112;8.598;2023-11-19T16:04:31;17.30;64.70
32147;DHT22;32190;49.112;8.598;2023-11-19T16:10:22;17.20;64.70
32147;DHT22;32190;49.112;8.598;2023-11-19T16:16:13;17.20;64.80
32147;DHT22;32190;49.112;8.598;2023-11-19T16:22:03;17.20;64.70
32147;DHT22;32190;49.112;8.598;2023-11-19T16:28:00;17.20;64.70
32147;DHT22;32190;49.112;8.598;2023-11-19T16:33:50;17.20;64.50
32147;DHT22;32190;49.112;8.598;2023-11-19T16:39:41;17.10;64.60
32147;DHT22;32190;49.112;8.598;2023-11-19T16:45:52;17.10;64.40
32147;DHT22;32190;49.112;8.598;2023-11-19T16:51:46;17.20;64.50
32147;DHT22;32190;49.112;8.598;2023-11-19T16:57:42;17.10;64.70
32147;DHT22;32190;49.112;8.598;2023-11-19T17:03:38;17.10;64.60
32147;DHT22;32190;49.112;8.598;2023-11-19T17:09:29;17.10;64.50
32147;DHT22;32190;49.112;8.598;2023-11-19T17:15:20;17.10;64.70
32147;DHT22;32190;49.112;8.598;2023-11-19T17:21:11;17.10;64.50
32147;DHT22;32190;49.112;8.598;2023-11-19T17:27:04;17.00;64.40
32147;DHT22;32190;49.112;8.598;2023-11-19T17:32:55;17.00;64.60
32147;DHT22;32190;49.112;8.598;2023-11-19T17:38:45;17.00;64.70
32147;DHT22;32190;49.112;8.598;2023-11-19T17:44:36;17.00;64.60
32147;DHT22;32190;49.112;8.598;2023-11-19T17:50:26;17.00;64.60
32147;DHT22;32190;49.112;8.598;2023-11-19T17:56:17;17.00;64.50
32147;DHT22;32190;49.112;8.598;2023-11-19T18:02:08;16.90;64.20
32147;DHT22;32190;49.112;8.598;2023-11-19T18:07:59;16.90;63.90
32147;DHT22;32190;49.112;8.598;2023-11-19T18:13:51;16.90;64.00
32147;DHT22;32190;49.112;8.598;2023-11-19T18:19:45;16.80;64.00
32147;DHT22;32190;49.112;8.598;2023-11-19T18:25:38;16.80;63.70
32147;DHT22;32190;49.112;8.598;2023-11-19T18:31:32;16.80;63.90
32147;DHT22;32190;49.112;8.598;2023-11-19T18:37:26;16.90;64.20
32147;DHT22;32190;49.112;8.598;2023-11-19T18:43:23;17.00;63.70
32147;DHT22;32190;49.112;8.598;2023-11-19T18:49:18;17.10;63.60
32147;DHT22;32190;49.112;8.598;2023-11-19T18:55:13;17.20;63.60
32147;DHT22;32190;49.112;8.598;2023-11-19T19:07:17;17.40;63.20
32147;DHT22;32190;49.112;8.598;2023-11-19T19:13:11;17.50;62.90
32147;DHT22;32190;49.112;8.598;2023-11-19T19:19:04;17.60;62.50
32147;DHT22;32190;49.112;8.598;2023-11-19T19:24:57;17.60;62.60
32147;DHT22;32190;49.112;8.598;2023-11-19T19:30:49;17.60;62.30
32147;DHT22;32190;49.112;8.598;2023-11-19T19:37:06;17.60;62.40
32147;DHT22;32190;49.112;8.598;2023-11-19T19:43:00;17.60;61.90
32147;DHT22;32190;49.112;8.598;2023-11-19T19:48:54;17.70;62.00
32147;DHT22;32190;49.112;8.598;2023-11-19T19:54:57;17.60;62.10
32147;DHT22;32190;49.112;8.598;2023-11-19T20:00:52;17.60;61.70
32147;DHT22;32190;49.112;8.598;2023-11-19T20:06:55;17.50;62.10
32147;DHT22;32190;49.112;8.598;2023-11-19T20:12:49;17.50;61.80
32147;DHT22;32190;49.112;8.598;2023-11-19T20:18:50;17.50;62.00
32147;DHT22;32190;49.112;8.598;2023-11-19T20:24:51;17.50;62.00
32147;DHT22;32190;49.112;8.598;2023-11-19T20:30:47;17.40;61.80
32147;DHT22;32190;49.112;8.598;2023-11-19T20:36:41;17.40;61.60
32147;DHT22;32190;49.112;8.598;2023-11-19T20:42:59;17.30;61.80
32147;DHT22;32190;49.112;8.598;2023-11-19T20:48:56;17.30;61.60
32147;DHT22;32190;49.112;8.598;2023-11-19T20:54:59;17.30;61.40
32147;DHT22;32190;49.112;8.598;2023-11-19T21:00:57;17.20;60.40
32147;DHT22;32190;49.112;8.598;2023-11-19T21:06:53;17.10;61.30
32147;DHT22;32190;49.112;8.598;2023-11-19T21:13:00;17.10;61.10
32147;DHT22;32190;49.112;8.598;2023-11-19T21:18:51;17.00;61.20
32147;DHT22;32190;49.112;8.598;2023-11-19T21:24:48;17.00;61.30
32147;DHT22;32190;49.112;8.598;2023-11-19T21:30:40;17.00;61.20
32147;DHT22;32190;49.112;8.598;2023-11-19T21:36:38;17.00;61.60
32147;DHT22;32190;49.112;8.598;2023-11-19T21:42:32;17.00;61.20
32147;DHT22;32190;49.112;8.598;2023-11-19T21:48:29;17.00;61.30
32147;DHT22;32190;49.112;8.598;2023-11-19T21:54:26;16.90;60.30
32147;DHT22;32190;49.112;8.598;2023-11-19T22:06:37;16.80;60.90
32147;DHT22;32190;49.112;8.598;2023-11-19T22:12:49;16.90;61.10
32147;DHT22;32190;49.112;8.598;2023-11-19T22:18:39;16.80;61.10
32147;DHT22;32190;49.112;8.598;2023-11-19T22:24:38;16.90;61.00
32147;DHT22;32190;49.112;8.598;2023-11-19T22:30:39;16.80;61.00
32147;DHT22;32190;49.112;8.598;2023-11-19T22:36:34;16.80;61.00
32147;DHT22;32190;49.112;8.598;2023-11-19T22:42:32;16.70;60.70
32147;DHT22;32190;49.112;8.598;2023-11-19T22:48:27;16.70;60.90
32147;DHT22;32190;49.112;8.598;2023-11-19T22:54:18;16.70;61.00
32147;DHT22;32190;49.112;8.598;2023-11-19T23:00:19;16.60;61.00
32147;DHT22;32190;49.112;8.598;2023-11-19T23:06:18;16.70;61.10
32147;DHT22;32190;49.112;8.598;2023-11-19T23:12:11;16.60;60.80
32147;DHT22;32190;49.112;8.598;2023-11-19T23:18:16;16.60;61.00
32147;DHT22;32190;49.112;8.598;2023-11-19T23:24:28;16.60;60.30
32147;DHT22;32190;49.112;8.598;2023-11-19T23:30:29;16.50;60.70
32147;DHT22;32190;49.112;8.598;2023-11-19T23:36:23;16.50;60.90
32147;DHT22;32190;49.112;8.598;2023-11-19T23:42:35;16.40;60.80
32147;DHT22;32190;49.112;8.598;2023-11-19T23:48:26;16.40;60.50
32147;DHT22;32190;49.112;8.598;2023-11-19T23:54:31;16.50;60.70
